createdAt,value
2023-05-06T00:01:12.337Z,6.13
2023-05-06T00:03:39.555Z,6.20
2023-05-06T00:06:07.435Z,4.05
2023-05-06T00:08:34.199Z,5.45
2023-05-06T00:11:01.058Z,5.07
2023-05-06T00:13:27.858Z,7.18
2023-05-06T00:15:54.625Z,4.00
2023-05-06T00:18:22.790Z,4.45
2023-05-06T00:20:49.815Z,6.07
2023-05-06T00:23:16.677Z,4.32
2023-05-06T00:25:43.451Z,4.88
2023-05-06T00:28:10.198Z,4.03
2023-05-06T00:30:36.931Z,3.83
2023-05-06T00:33:03.740Z,4.13
2023-05-06T00:35:30.742Z,3.38
2023-05-06T00:38:11.669Z,5.97
2023-05-06T00:40:38.586Z,3.75
2023-05-06T00:43:05.588Z,3.75
2023-05-06T00:45:32.706Z,3.60
2023-05-06T00:50:34.500Z,4.00
2023-05-06T00:53:03.886Z,4.70
2023-05-06T00:55:31.499Z,8.73
2023-05-06T00:57:58.471Z,14.88
2023-05-06T01:00:25.674Z,11.52
2023-05-06T01:02:52.525Z,44.35
2023-05-06T01:05:22.348Z,14.60
2023-05-06T01:08:12.152Z,9.02
2023-05-06T01:10:44.425Z,5.20
2023-05-06T01:13:39.270Z,5.90
2023-05-06T01:16:08.609Z,2.90
2023-05-06T01:18:38.378Z,3.47
2023-05-06T01:21:05.862Z,4.85
2023-05-06T01:23:57.640Z,3.88
2023-05-06T01:26:25.410Z,12.57
2023-05-06T01:28:52.497Z,9.82
2023-05-06T01:31:29.969Z,3.17
2023-05-06T01:34:31.255Z,4.57
2023-05-06T01:36:57.988Z,3.45
2023-05-06T01:39:30.804Z,3.28
2023-05-06T01:42:00.344Z,4.25
2023-05-06T01:44:31.899Z,6.00
2023-05-06T01:46:58.739Z,4.47
2023-05-06T01:49:26.443Z,8.52
2023-05-06T01:51:54.550Z,4.13
2023-05-06T01:54:21.452Z,3.80
2023-05-06T01:56:48.152Z,3.65
2023-05-06T01:59:14.944Z,4.30
2023-05-06T02:01:41.725Z,3.83
2023-05-06T02:04:08.548Z,3.78
2023-05-06T02:06:35.365Z,3.83
2023-05-06T02:09:02.204Z,3.90
2023-05-06T02:11:29.070Z,3.97
2023-05-06T02:13:55.764Z,3.75
2023-05-06T02:16:22.561Z,3.40
2023-05-06T02:18:49.409Z,3.90
2023-05-06T02:21:16.362Z,3.95
2023-05-06T02:23:43.062Z,5.38
2023-05-06T02:26:10.597Z,3.17
2023-05-06T02:28:37.411Z,3.40
2023-05-06T02:31:04.099Z,4.32
2023-05-06T02:33:30.884Z,4.28
2023-05-06T02:35:57.579Z,4.47
2023-05-06T02:38:24.338Z,3.65
2023-05-06T02:40:51.028Z,4.07
2023-05-06T02:43:17.729Z,4.53
2023-05-06T02:45:44.527Z,3.70
2023-05-06T02:48:11.240Z,3.80
2023-05-06T02:50:37.935Z,3.50
2023-05-06T02:53:04.747Z,3.63
2023-05-06T02:55:31.639Z,3.47
2023-05-06T02:57:58.350Z,4.20
2023-05-06T03:00:25.066Z,3.88
2023-05-06T03:02:51.877Z,3.10
2023-05-06T03:05:18.736Z,3.03
2023-05-06T03:07:45.547Z,4.97
2023-05-06T03:10:12.358Z,4.90
2023-05-06T03:12:39.174Z,4.32
2023-05-06T03:15:07.225Z,4.22
2023-05-06T03:17:34.045Z,4.50
2023-05-06T03:20:00.866Z,3.97
2023-05-06T03:22:27.568Z,4.50
2023-05-06T03:24:54.246Z,3.70
2023-05-06T03:27:20.936Z,4.28
2023-05-06T03:29:47.658Z,5.28
2023-05-06T03:32:14.354Z,3.63
2023-05-06T03:34:41.061Z,3.33
2023-05-06T03:37:07.812Z,4.53
2023-05-06T03:39:34.492Z,4.22
2023-05-06T03:42:02.269Z,4.53
2023-05-06T03:44:29.317Z,4.05
2023-05-06T03:46:56.045Z,4.68
2023-05-06T03:49:22.761Z,4.65
2023-05-06T03:51:49.635Z,4.03
2023-05-06T03:54:16.368Z,4.72
2023-05-06T03:56:43.062Z,4.15
2023-05-06T03:59:09.813Z,3.70
2023-05-06T04:01:36.519Z,3.95
2023-05-06T04:04:03.332Z,3.70
2023-05-06T04:06:30.138Z,4.22
2023-05-06T04:08:56.848Z,5.03
2023-05-06T04:11:23.526Z,3.22
2023-05-06T04:13:50.292Z,4.30
2023-05-06T04:16:17.125Z,3.90
2023-05-06T04:18:44.100Z,4.10
2023-05-06T04:21:12.191Z,5.07
2023-05-06T04:23:39.014Z,3.35
2023-05-06T04:26:06.080Z,4.50
2023-05-06T04:28:33.026Z,4.55
2023-05-06T04:30:59.794Z,4.00
2023-05-06T04:33:27.395Z,4.13
2023-05-06T04:35:54.323Z,5.15
2023-05-06T04:38:27.067Z,4.25
2023-05-06T04:40:53.854Z,5.65
2023-05-06T04:43:20.620Z,5.75
2023-05-06T04:45:49.647Z,5.65
2023-05-06T04:48:22.273Z,11.32
2023-05-06T04:50:49.789Z,9.00
2023-05-06T04:53:17.143Z,7.70
2023-05-06T04:55:43.988Z,8.27
2023-05-06T04:58:10.731Z,10.90
2023-05-06T05:00:37.580Z,18.15
2023-05-06T05:03:04.449Z,14.23
2023-05-06T05:05:33.240Z,11.30
2023-05-06T05:08:00.038Z,5.13
2023-05-06T05:10:26.851Z,4.65
2023-05-06T05:12:53.599Z,4.00
2023-05-06T05:15:21.244Z,3.67
2023-05-06T05:17:48.297Z,3.80
2023-05-06T05:20:15.213Z,3.13
2023-05-06T05:22:41.959Z,7.35
2023-05-06T05:25:08.883Z,3.35
2023-05-06T05:27:36.385Z,3.88
2023-05-06T05:30:03.641Z,4.78
2023-05-06T05:32:30.411Z,3.70
2023-05-06T05:34:57.210Z,4.63
2023-05-06T05:37:23.944Z,4.18
2023-05-06T05:39:50.723Z,3.88
2023-05-06T05:42:17.497Z,4.25
2023-05-06T05:44:44.198Z,5.20
2023-05-06T05:47:11.010Z,5.43
2023-05-06T05:49:37.701Z,3.53
2023-05-06T05:52:04.730Z,4.00
2023-05-06T05:54:31.486Z,4.57
2023-05-06T05:56:58.240Z,3.85
2023-05-06T05:59:25.839Z,4.10
2023-05-06T06:01:52.549Z,4.20
2023-05-06T06:04:19.444Z,6.65
2023-05-06T06:06:46.404Z,4.88
2023-05-06T06:09:13.767Z,4.40
2023-05-06T06:11:40.723Z,4.28
2023-05-06T06:14:07.499Z,4.32
2023-05-06T06:16:34.509Z,3.88
2023-05-06T06:19:01.318Z,4.70
2023-05-06T06:21:28.078Z,4.13
2023-05-06T06:23:55.287Z,4.97
2023-05-06T06:26:21.994Z,4.90
2023-05-06T06:28:48.722Z,4.18
2023-05-06T06:31:15.740Z,5.60
2023-05-06T06:33:42.477Z,3.85
2023-05-06T06:36:09.485Z,4.65
2023-05-06T06:38:36.214Z,7.75
2023-05-06T06:41:03.046Z,7.63
2023-05-06T06:43:29.833Z,6.45
2023-05-06T06:45:56.831Z,5.90
2023-05-06T06:48:23.685Z,9.10
2023-05-06T06:50:50.611Z,9.18
2023-05-06T06:53:17.470Z,7.43
2023-05-06T06:55:47.357Z,7.30
2023-05-06T06:58:14.208Z,9.55
2023-05-06T07:00:40.941Z,6.65
2023-05-06T07:03:07.819Z,5.28
2023-05-06T07:05:34.613Z,5.82
2023-05-06T07:08:01.336Z,13.68
2023-05-06T07:10:28.143Z,10.23
2023-05-06T07:12:54.969Z,8.02
2023-05-06T07:15:21.870Z,8.68
2023-05-06T07:17:48.568Z,7.60
2023-05-06T07:20:16.232Z,9.98
2023-05-06T07:22:43.705Z,8.80
2023-05-06T07:25:10.833Z,11.35
2023-05-06T07:27:38.215Z,10.52
2023-05-06T07:30:05.561Z,8.95
2023-05-06T07:32:32.317Z,7.55
2023-05-06T07:34:59.177Z,7.75
2023-05-06T07:37:25.930Z,7.18
2023-05-06T07:39:52.708Z,8.98
2023-05-06T07:42:19.443Z,7.57
2023-05-06T07:44:46.271Z,10.35
2023-05-06T07:47:25.320Z,6.57
2023-05-06T07:49:52.112Z,7.60
2023-05-06T07:52:18.844Z,10.68
2023-05-06T07:54:45.704Z,7.97
2023-05-06T07:57:12.422Z,7.95
2023-05-06T07:59:39.171Z,9.05
2023-05-06T08:02:05.957Z,7.68
2023-05-06T08:04:32.820Z,5.80
2023-05-06T08:06:59.590Z,7.10
2023-05-06T08:09:26.324Z,8.27
2023-05-06T08:11:53.572Z,6.72
2023-05-06T08:14:20.296Z,6.70
2023-05-06T08:16:47.203Z,6.88
2023-05-06T08:19:13.972Z,8.27
2023-05-06T08:21:41.194Z,6.10
2023-05-06T08:24:08.054Z,8.15
2023-05-06T08:26:34.785Z,6.25
2023-05-06T08:29:03.105Z,8.07
2023-05-06T08:31:29.968Z,5.15
2023-05-06T08:33:56.671Z,6.25
2023-05-06T08:36:23.418Z,7.05
2023-05-06T08:38:51.022Z,7.60
2023-05-06T08:41:19.922Z,7.28
2023-05-06T08:43:48.555Z,3.67
2023-05-06T08:46:15.818Z,6.22
2023-05-06T08:48:43.003Z,3.40
2023-05-06T08:51:11.719Z,4.40
2023-05-06T08:53:42.327Z,4.95
2023-05-06T08:56:11.579Z,7.95
2023-05-06T08:58:40.960Z,5.80
2023-05-06T09:01:08.010Z,5.53
2023-05-06T09:03:34.852Z,6.45
2023-05-06T09:06:02.305Z,5.88
2023-05-06T09:08:29.029Z,9.52
2023-05-06T09:10:55.786Z,6.30
2023-05-06T09:13:22.609Z,6.15
2023-05-06T09:15:49.615Z,5.80
2023-05-06T09:18:16.944Z,4.43
2023-05-06T09:20:49.280Z,5.95
2023-05-06T09:23:17.788Z,6.63
2023-05-06T09:25:46.490Z,4.68
2023-05-06T09:28:14.276Z,4.75
2023-05-06T09:30:42.362Z,4.45
2023-05-06T09:33:10.144Z,11.35
2023-05-06T09:35:42.730Z,5.45
2023-05-06T09:38:10.016Z,4.72
2023-05-06T09:40:37.993Z,3.35
2023-05-06T09:43:05.853Z,4.15
2023-05-06T09:45:33.335Z,7.65
2023-05-06T09:48:00.683Z,4.05
2023-05-06T09:50:27.604Z,5.25
2023-05-06T09:52:55.989Z,5.43
2023-05-06T09:55:26.513Z,5.85
2023-05-06T09:57:53.575Z,7.43
2023-05-06T10:00:26.878Z,2.60
2023-05-06T10:02:55.103Z,4.13
2023-05-06T10:05:24.935Z,3.08
2023-05-06T10:07:53.465Z,3.53
2023-05-06T10:10:21.235Z,5.40
2023-05-06T10:12:49.917Z,8.45
2023-05-06T10:15:16.820Z,4.53
2023-05-06T10:17:47.452Z,8.70
2023-05-06T10:20:15.033Z,2.97
2023-05-06T10:22:52.741Z,5.25
2023-05-06T10:25:42.551Z,4.93
2023-05-06T10:28:12.896Z,5.93
2023-05-06T10:30:51.038Z,4.90
2023-05-06T10:33:18.115Z,6.07
2023-05-06T10:35:52.957Z,4.43
2023-05-06T10:38:34.492Z,6.03
2023-05-06T10:41:02.183Z,6.47
2023-05-06T10:43:32.862Z,2.50
2023-05-06T10:46:17.366Z,3.78
2023-05-06T10:49:06.295Z,9.20
2023-05-06T10:51:33.948Z,4.35
2023-05-06T10:54:11.352Z,4.47
2023-05-06T10:56:40.010Z,3.08
2023-05-06T10:59:11.743Z,5.50
2023-05-06T11:01:40.487Z,4.20
2023-05-06T11:04:12.644Z,5.47
2023-05-06T11:06:48.154Z,3.75
2023-05-06T11:09:23.043Z,4.63
2023-05-06T11:12:05.851Z,3.78
2023-05-06T11:14:38.986Z,3.78
2023-05-06T11:17:07.750Z,4.43
2023-05-06T11:19:36.484Z,4.40
2023-05-06T11:22:05.416Z,3.42
2023-05-06T11:24:43.307Z,4.93
2023-05-06T11:27:11.167Z,5.78
2023-05-06T11:29:38.200Z,2.90
2023-05-06T11:32:25.165Z,2.30
2023-05-06T11:34:56.356Z,3.47
2023-05-06T11:37:27.972Z,3.22
2023-05-06T11:39:55.151Z,2.53
2023-05-06T11:42:29.146Z,5.13
2023-05-06T11:45:00.519Z,3.85
2023-05-06T11:47:27.279Z,6.07
2023-05-06T11:49:54.853Z,3.58
2023-05-06T11:52:21.720Z,2.88
2023-05-06T11:54:50.825Z,4.47
2023-05-06T11:57:19.624Z,4.47
2023-05-06T11:59:46.413Z,3.55
2023-05-06T12:02:14.459Z,3.10
2023-05-06T12:04:46.569Z,4.25
2023-05-06T12:07:15.448Z,3.17
2023-05-06T12:09:45.794Z,3.42
2023-05-06T12:14:41.826Z,3.70
2023-05-06T12:17:08.745Z,3.40
2023-05-06T12:19:35.732Z,2.88
2023-05-06T12:22:24.549Z,6.45
2023-05-06T12:24:51.422Z,2.50
2023-05-06T12:27:34.747Z,2.97
2023-05-06T12:30:04.133Z,6.18
2023-05-06T12:32:31.238Z,3.90
2023-05-06T12:34:59.481Z,4.13
2023-05-06T12:37:29.216Z,3.47
2023-05-06T12:39:59.225Z,4.85
2023-05-06T12:44:53.426Z,3.17
2023-05-06T12:47:25.725Z,6.25
2023-05-06T12:49:54.373Z,4.78
2023-05-06T12:52:23.137Z,4.35
2023-05-06T12:54:51.888Z,5.18
2023-05-06T12:57:19.134Z,4.20
2023-05-06T12:59:46.461Z,3.35
2023-05-06T13:02:13.752Z,6.18
2023-05-06T13:04:40.846Z,4.10
2023-05-06T13:07:07.753Z,4.07
2023-05-06T13:09:34.469Z,5.78
2023-05-06T13:12:02.750Z,5.32
2023-05-06T13:14:29.466Z,3.83
2023-05-06T13:16:56.346Z,3.75
2023-05-06T13:19:32.284Z,5.03
2023-05-06T13:22:00.505Z,3.95
2023-05-06T13:24:27.731Z,5.47
2023-05-06T13:26:56.069Z,5.95
2023-05-06T13:29:23.595Z,4.45
2023-05-06T13:31:51.336Z,4.68
2023-05-06T13:34:18.537Z,4.57
2023-05-06T13:36:46.766Z,5.68
2023-05-06T13:39:13.851Z,3.50
2023-05-06T13:41:40.638Z,3.28
2023-05-06T13:44:07.392Z,7.07
2023-05-06T13:46:34.146Z,9.00
2023-05-06T13:49:01.028Z,4.47
2023-05-06T13:51:29.947Z,4.97
2023-05-06T13:53:56.782Z,4.00
2023-05-06T13:56:23.578Z,6.53
2023-05-06T13:58:50.439Z,8.32
2023-05-06T14:01:17.281Z,5.13
2023-05-06T14:03:44.012Z,3.97
2023-05-06T14:06:11.588Z,5.70
2023-05-06T14:08:38.532Z,2.53
2023-05-06T14:11:05.552Z,2.92
2023-05-06T14:13:33.858Z,3.45
2023-05-06T14:16:00.712Z,3.53
2023-05-06T14:18:28.293Z,3.17
2023-05-06T14:20:55.320Z,2.88
2023-05-06T14:23:22.233Z,4.13
2023-05-06T14:25:49.331Z,3.15
2023-05-06T14:28:16.297Z,3.25
2023-05-06T14:30:43.305Z,2.40
2023-05-06T14:33:10.629Z,2.25
2023-05-06T14:35:45.984Z,6.50
2023-05-06T14:38:12.831Z,7.15
2023-05-06T14:40:39.617Z,3.67
2023-05-06T14:43:09.308Z,3.63
2023-05-06T14:45:36.075Z,8.50
2023-05-06T14:48:03.123Z,6.82
2023-05-06T14:50:30.985Z,5.05
2023-05-06T14:52:57.895Z,4.40
2023-05-06T14:55:25.602Z,2.83
2023-05-06T14:57:52.370Z,7.25
2023-05-06T15:00:20.334Z,3.97
2023-05-06T15:02:47.176Z,3.03
2023-05-06T15:05:14.219Z,4.45
2023-05-06T15:07:41.418Z,3.03
2023-05-06T15:10:08.460Z,4.57
2023-05-06T15:12:36.819Z,5.35
2023-05-06T15:15:05.046Z,4.75
2023-05-06T15:17:32.527Z,3.72
2023-05-06T15:19:59.342Z,5.10
2023-05-06T15:22:26.168Z,3.13
2023-05-06T15:24:52.930Z,5.22
2023-05-06T15:27:19.641Z,4.22
2023-05-06T15:29:46.390Z,2.63
2023-05-06T15:32:13.226Z,4.20
2023-05-06T15:34:39.987Z,3.80
2023-05-06T15:37:08.050Z,3.22
2023-05-06T15:39:39.215Z,6.07
2023-05-06T15:42:06.325Z,5.15
2023-05-06T15:44:33.913Z,7.68
2023-05-06T15:47:01.050Z,2.95
2023-05-06T15:52:00.582Z,3.75
2023-05-06T15:54:28.529Z,3.40
2023-05-06T15:56:56.337Z,3.95
2023-05-06T15:59:23.188Z,5.72
2023-05-06T16:02:25.517Z,4.30
2023-05-06T16:04:37.143Z,3.67
2023-05-06T16:07:04.067Z,2.05
2023-05-06T16:09:30.876Z,2.53
2023-05-06T16:11:58.094Z,2.67
2023-05-06T16:14:24.858Z,8.13
2023-05-06T16:16:51.658Z,3.55
2023-05-06T16:19:18.592Z,4.60
2023-05-06T16:21:45.320Z,5.05
2023-05-06T16:24:12.051Z,3.95
2023-05-06T16:26:38.788Z,6.85
2023-05-06T16:29:06.646Z,4.65
2023-05-06T16:31:33.866Z,5.20
2023-05-06T16:34:00.626Z,3.65
2023-05-06T16:36:28.513Z,2.67
2023-05-06T16:38:55.472Z,2.70
2023-05-06T16:41:22.213Z,3.15
2023-05-06T16:43:49.521Z,3.10
2023-05-06T16:46:16.331Z,2.10
2023-05-06T16:48:43.250Z,4.68
2023-05-06T16:51:12.204Z,5.40
2023-05-06T16:53:39.196Z,3.80
2023-05-06T16:56:06.286Z,6.85
2023-05-06T16:58:33.104Z,4.97
2023-05-06T17:00:59.899Z,2.85
2023-05-06T17:03:26.820Z,2.70
2023-05-06T17:05:56.265Z,2.65
2023-05-06T17:08:24.437Z,4.10
2023-05-06T17:10:53.466Z,2.55
2023-05-06T17:13:20.352Z,2.20
2023-05-06T17:15:47.176Z,1.67
2023-05-06T17:18:14.149Z,2.10
2023-05-06T17:20:54.186Z,2.75
2023-05-06T17:23:21.851Z,4.22
2023-05-06T17:25:48.652Z,5.15
2023-05-06T17:28:16.773Z,4.10
2023-05-06T17:30:44.890Z,7.45
2023-05-06T17:33:11.783Z,5.47
2023-05-06T17:35:38.582Z,4.45
2023-05-06T17:38:05.382Z,6.38
2023-05-06T17:40:32.124Z,3.53
2023-05-06T17:42:58.944Z,2.80
2023-05-06T17:45:26.774Z,5.47
2023-05-06T17:47:53.645Z,4.45
2023-05-06T17:50:20.473Z,4.72
2023-05-06T17:52:50.879Z,29.60
2023-05-06T17:57:44.716Z,4.25
2023-05-06T18:00:11.945Z,3.58
2023-05-06T18:02:38.973Z,4.68
2023-05-06T18:05:06.469Z,2.75
2023-05-06T18:07:35.687Z,4.07
2023-05-06T18:10:02.537Z,2.85
2023-05-06T18:12:30.367Z,3.53
2023-05-06T18:14:57.862Z,4.38
2023-05-06T18:17:24.662Z,4.28
2023-05-06T18:19:51.779Z,6.03
2023-05-06T18:22:18.514Z,3.95
2023-05-06T18:24:45.285Z,4.90
2023-05-06T18:27:13.029Z,3.88
2023-05-06T18:29:41.231Z,5.85
2023-05-06T18:32:08.376Z,5.63
2023-05-06T18:34:35.431Z,3.72
2023-05-06T18:37:02.234Z,5.75
2023-05-06T18:39:29.088Z,7.25
2023-05-06T18:41:55.874Z,5.47
2023-05-06T18:44:22.614Z,3.95
2023-05-06T18:46:49.379Z,4.38
2023-05-06T18:49:16.431Z,5.97
2023-05-06T18:51:43.153Z,6.38
2023-05-06T18:54:09.940Z,5.57
2023-05-06T18:56:37.522Z,7.70
2023-05-06T18:59:04.271Z,8.13
2023-05-06T19:01:31.157Z,6.63
2023-05-06T19:03:58.092Z,6.13
2023-05-06T19:06:24.985Z,5.75
2023-05-06T19:08:51.779Z,9.88
2023-05-06T19:11:19.181Z,7.88
2023-05-06T19:13:46.472Z,6.10
2023-05-06T19:16:14.054Z,5.38
2023-05-06T19:18:41.064Z,5.88
2023-05-06T19:21:12.178Z,6.10
2023-05-06T19:23:39.143Z,4.40
2023-05-06T19:26:07.134Z,8.23
2023-05-06T19:28:34.373Z,5.68
2023-05-06T19:31:01.703Z,6.72
2023-05-06T19:33:28.748Z,5.97
2023-05-06T19:35:55.470Z,6.88
2023-05-06T19:38:22.196Z,7.38
2023-05-06T19:40:48.958Z,5.72
2023-05-06T19:43:15.696Z,6.40
2023-05-06T19:45:42.525Z,9.13
2023-05-06T19:48:09.408Z,7.53
2023-05-06T19:50:36.699Z,8.10
2023-05-06T19:53:03.588Z,9.90
2023-05-06T19:55:30.946Z,8.82
2023-05-06T19:57:58.061Z,14.32
2023-05-06T20:00:27.919Z,7.45
2023-05-06T20:02:56.424Z,8.40
2023-05-06T20:05:23.544Z,7.90
2023-05-06T20:07:51.206Z,9.20
2023-05-06T20:10:18.074Z,8.80
2023-05-06T20:12:44.993Z,8.30
2023-05-06T20:15:12.195Z,9.48
2023-05-06T20:17:39.421Z,15.77
2023-05-06T20:20:09.988Z,11.80
2023-05-06T20:22:37.931Z,14.70
2023-05-06T20:25:13.125Z,11.65
2023-05-06T20:27:40.511Z,11.93
2023-05-06T20:30:09.552Z,10.73
2023-05-06T20:32:37.703Z,9.32
2023-05-06T20:35:05.270Z,9.95
2023-05-06T20:37:33.656Z,10.93
2023-05-06T20:40:00.836Z,11.52
2023-05-06T20:42:27.894Z,12.98
2023-05-06T20:44:54.656Z,11.88
2023-05-06T20:47:21.535Z,13.13
2023-05-06T20:49:48.355Z,13.73
2023-05-06T20:52:15.076Z,10.75
2023-05-06T20:54:43.250Z,9.68
2023-05-06T20:57:11.461Z,11.45
2023-05-06T20:59:38.268Z,14.23
2023-05-06T21:02:05.578Z,14.80
2023-05-06T21:04:32.825Z,16.27
2023-05-06T21:06:59.851Z,14.82
2023-05-06T21:09:28.015Z,20.85
2023-05-06T21:11:55.691Z,22.83
2023-05-06T21:14:24.789Z,25.52
2023-05-06T21:16:52.269Z,32.83
2023-05-06T21:19:19.908Z,15.90
2023-05-06T21:21:46.908Z,17.45
2023-05-06T21:24:13.697Z,21.17
2023-05-06T21:26:40.522Z,19.55
2023-05-06T21:29:07.490Z,14.40
2023-05-06T21:31:34.400Z,26.05
2023-05-06T21:34:01.329Z,16.05
2023-05-06T21:36:28.222Z,31.98
2023-05-06T21:39:09.855Z,23.48
2023-05-06T21:41:37.048Z,22.83
2023-05-06T21:44:05.868Z,25.60
2023-05-06T21:46:33.716Z,18.67
2023-05-06T21:49:01.056Z,16.13
2023-05-06T21:51:28.672Z,28.67
2023-05-06T21:53:55.546Z,13.25
2023-05-06T21:56:22.699Z,16.80
2023-05-06T21:58:49.662Z,13.07
2023-05-06T22:01:16.838Z,12.77
2023-05-06T22:03:45.986Z,17.33
2023-05-06T22:06:13.258Z,14.05
2023-05-06T22:08:41.173Z,12.10
2023-05-06T22:11:08.249Z,16.75
2023-05-06T22:13:35.190Z,16.60
2023-05-06T22:16:02.031Z,27.60
2023-05-06T22:18:30.029Z,46.80
2023-05-06T22:20:57.854Z,60.65
2023-05-06T22:23:25.423Z,24.70
2023-05-06T22:25:52.379Z,47.13
2023-05-06T22:28:19.826Z,35.90
2023-05-06T22:30:46.668Z,20.17
2023-05-06T22:33:13.611Z,18.00
2023-05-06T22:35:40.611Z,15.85
2023-05-06T22:38:08.735Z,17.58
2023-05-06T22:40:35.510Z,15.73
2023-05-06T22:43:02.354Z,12.43
2023-05-06T22:45:29.270Z,15.23
2023-05-06T22:47:56.279Z,16.88
2023-05-06T22:50:23.149Z,19.90
2023-05-06T22:52:49.869Z,27.17
2023-05-06T22:55:16.608Z,31.85
2023-05-06T22:57:43.470Z,24.88
2023-05-06T23:00:12.557Z,18.90
2023-05-06T23:02:39.849Z,20.27
2023-05-06T23:05:07.230Z,15.85
2023-05-06T23:07:34.149Z,15.98
2023-05-06T23:10:01.283Z,15.93
2023-05-06T23:12:32.793Z,24.55
2023-05-06T23:15:00.401Z,22.88
2023-05-06T23:17:27.240Z,26.98
2023-05-06T23:19:54.088Z,18.13
2023-05-06T23:22:20.992Z,15.75
2023-05-06T23:24:47.784Z,16.38
2023-05-06T23:27:14.670Z,12.25
2023-05-06T23:29:41.422Z,10.98
2023-05-06T23:32:08.275Z,11.00
2023-05-06T23:34:34.995Z,13.35
2023-05-06T23:37:01.733Z,11.68
2023-05-06T23:39:29.626Z,14.18
2023-05-06T23:41:56.345Z,11.85
2023-05-06T23:44:23.354Z,11.65
2023-05-06T23:46:50.246Z,9.20
2023-05-06T23:49:17.157Z,13.88
2023-05-06T23:51:43.875Z,13.32
2023-05-06T23:54:10.726Z,13.30
2023-05-06T23:56:37.439Z,14.02
2023-05-06T23:59:04.190Z,10.43
